ウィンドフック・ホセア・クタコ国際空港の過去48時間の天気

ウィンドフック・ホセア・クタコ国際空港 (Windhoek Hosea Kutako)

現在時刻: 8/18 15:57 CAT (8/18 13:57 UTC) 以下の時間は現地時間です。

過去48時間のMETAR気象情報
時間 風向 風速(m/s) 視程 気温(℃) 湿度(%) 気圧(hPa) 天気現象
18 15:00 西 11 8000m 25 11 1021
18 12:00 西 8 10km以上 25 11 1023
18 10:00 西北西 4 10km以上 22 8 1024
18 09:00 静穏 0 10km以上 17 12 1024
18 08:00 北西 2 10km以上 9 23 1024
18 07:00 北西 3 10km以上 5 30 1023
18 06:00 西北西 2 10km以上 1 40 1023
FYWH 181300Z 28021G32KT 8000 SKC 25/M08 Q1021 NOSIG
FYWH 181000Z 28015KT CAVOK 25/M08 Q1023 NOSIG
FYWH 180800Z 30007KT CAVOK 22/M14 Q1024 NOSIG
FYWH 180700Z 00000KT CAVOK 17/M13 Q1024 NOSIG
FYWH 180600Z 32004KT CAVOK 09/M11 Q1024 NOSIG
FYWH 180500Z 31005KT CAVOK 05/M11 Q1023 NOSIG
FYWH 180400Z 30004KT CAVOK 01/M11 Q1023 NOSIG